Time;durP1;ratioP1;P1;durP2;ratioP2;P2;SDS_P1;SDS_P2;PMS_P1;PMS_P2;Temp;Humidity;BMP_temperature;BMP_pressure;BME280_temperature;BME280_humidity;BME280_pressure;Samples;Min_cycle;Max_cycle;Signal;HPM_P1;HPM_P2
2023/05/13 00:00:29;;;;;;;;;;;;;;;18.75;34.56;100968.25;4960967;27;98282;-74
2023/05/13 00:02:55;;;;;;;;;;;;;;;18.72;34.58;100970.78;4964887;27;98130;-71
2023/05/13 00:05:24;;;;;;;;;;;;;;;18.69;34.62;100980.38;4965298;27;98171;-71
2023/05/13 00:07:51;;;;;;;;;;;;;;;18.64;34.31;100970.38;4947749;27;98117;-72
2023/05/13 00:10:19;;;;;;;;;;;;;;;18.61;34.62;100975.66;4932800;28;98213;-72
2023/05/13 00:12:46;;;;;;;;;;;;;;;18.58;34.50;100977.06;4967798;27;98215;-71
2023/05/13 00:15:14;;;;;;;;;;;;;;;18.53;34.54;100971.72;4980667;27;98614;-74
2023/05/13 00:17:41;;;;;;;;;;;;;;;18.52;34.59;100972.06;4965838;27;99022;-71
2023/05/13 00:20:08;;;;;;;;;;;;;;;18.48;34.70;100980.03;4953114;27;98465;-74
2023/05/13 00:22:35;;;;;;;;;;;;;;;18.46;34.75;100978.72;4977877;27;98019;-73
2023/05/13 00:25:03;;;;;;;;;;;;;;;18.44;34.80;100984.50;4975566;27;97949;-72
2023/05/13 00:27:31;;;;;;;;;;;;;;;18.39;34.59;100979.97;4964527;27;98020;-71
2023/05/13 00:29:58;;;;;;;;;;;;;;;18.38;34.54;100985.72;4966980;28;98076;-74
2023/05/13 00:32:25;;;;;;;;;;;;;;;18.36;34.70;100982.50;4966124;27;99395;-75
2023/05/13 00:34:52;;;;;;;;;;;;;;;18.33;34.68;100988.56;4981317;27;98047;-71
2023/05/13 00:37:20;;;;;;;;;;;;;;;18.30;34.77;100992.72;4962002;27;97905;-71
2023/05/13 00:39:48;;;;;;;;;;;;;;;18.27;34.84;100995.25;4952403;27;97993;-71
2023/05/13 00:42:15;;;;;;;;;;;;;;;18.25;34.90;100987.38;4956556;27;98345;-71
2023/05/13 00:44:41;;;;;;;;;;;;;;;18.23;34.79;100988.78;4963949;27;97960;-73
2023/05/13 00:47:10;;;;;;;;;;;;;;;18.21;34.99;101000.00;4959694;27;98148;-71
2023/05/13 00:49:38;;;;;;;;;;;;;;;18.18;34.68;100995.16;4942614;27;98363;-73
2023/05/13 00:52:06;;;;;;;;;;;;;;;18.16;34.66;101002.84;4963423;27;100923;-71
2023/05/13 00:54:34;;;;;;;;;;;;;;;18.13;34.91;100995.28;4922855;27;98164;-71
2023/05/13 00:57:01;;;;;;;;;;;;;;;18.11;34.93;100997.50;4949451;27;98084;-72
2023/05/13 00:59:29;;;;;;;;;;;;;;;18.08;34.71;101006.31;4950343;27;98437;-71
2023/05/13 01:02:34;;;;;;;;;;;;;;;18.05;34.77;100999.53;4965660;27;98714;-72
2023/05/13 01:05:26;;;;;;;;;;;;;;;18.02;34.55;101002.84;4964753;28;100036;-71
2023/05/13 01:08:04;;;;;;;;;;;;;;;18.00;34.76;101004.25;4975622;27;98209;-73
2023/05/13 01:10:48;;;;;;;;;;;;;;;17.97;34.88;101013.06;4978733;27;97971;-71
2023/05/13 01:13:17;;;;;;;;;;;;;;;17.95;34.76;101016.09;4988441;27;98126;-71
2023/05/13 01:15:49;;;;;;;;;;;;;;;17.93;34.98;101017.53;4987758;27;101213;-73
2023/05/13 01:18:47;;;;;;;;;;;;;;;17.89;34.88;101023.56;4990027;27;99493;-71
2023/05/13 01:21:13;;;;;;;;;;;;;;;17.87;34.87;101016.78;4984599;27;98241;-71
2023/05/13 01:23:41;;;;;;;;;;;;;;;17.84;34.88;101026.41;4987212;27;98056;-71
2023/05/13 01:26:08;;;;;;;;;;;;;;;17.82;34.97;101031.34;4985010;27;97878;-71
2023/05/13 01:28:35;;;;;;;;;;;;;;;17.80;35.10;101027.28;4987014;27;98098;-73
2023/05/13 01:31:01;;;;;;;;;;;;;;;17.77;35.04;101031.44;4975810;27;97921;-71
2023/05/13 01:33:28;;;;;;;;;;;;;;;17.76;35.08;101024.34;4971146;27;98097;-71
2023/05/13 01:35:56;;;;;;;;;;;;;;;17.74;34.95;101034.75;4977775;27;98130;-72
2023/05/13 01:38:23;;;;;;;;;;;;;;;17.71;35.03;101027.16;4973130;27;98153;-71
2023/05/13 01:40:50;;;;;;;;;;;;;;;17.70;34.94;101031.00;4972636;27;98071;-73
2023/05/13 01:43:17;;;;;;;;;;;;;;;17.66;34.98;101028.06;4978243;27;98275;-71
2023/05/13 01:45:44;;;;;;;;;;;;;;;17.64;34.96;101035.75;4984293;27;98470;-73
2023/05/13 01:48:10;;;;;;;;;;;;;;;17.62;34.98;101035.22;4987026;27;98556;-73
2023/05/13 01:50:36;;;;;;;;;;;;;;;17.60;35.13;101037.44;4976962;27;98212;-71
2023/05/13 01:53:03;;;;;;;;;;;;;;;17.58;35.10;101033.41;4972519;27;98004;-71
2023/05/13 01:55:31;;;;;;;;;;;;;;;17.56;35.19;101039.16;4988132;27;98070;-71
2023/05/13 01:57:58;;;;;;;;;;;;;;;17.54;35.09;101040.56;4988043;27;98890;-72
2023/05/13 02:00:27;;;;;;;;;;;;;;;17.51;34.99;101055.59;4973557;27;98309;-73
2023/05/13 02:02:53;;;;;;;;;;;;;;;17.49;35.00;101041.47;4986856;27;98483;-73
2023/05/13 02:05:21;;;;;;;;;;;;;;;17.48;35.19;101041.75;4972268;27;98047;-71
2023/05/13 02:07:47;;;;;;;;;;;;;;;17.46;35.07;101044.00;4970800;27;98016;-73
2023/05/13 02:10:14;;;;;;;;;;;;;;;17.44;35.03;101038.81;4970839;27;98144;-72
2023/05/13 02:12:41;;;;;;;;;;;;;;;17.42;35.09;101046.50;4985568;27;98295;-71
2023/05/13 02:15:07;;;;;;;;;;;;;;;17.40;35.03;101043.25;4964152;27;98357;-74
2023/05/13 02:17:34;;;;;;;;;;;;;;;17.39;35.03;101036.19;4981398;27;99674;-72
2023/05/13 02:20:00;;;;;;;;;;;;;;;17.35;35.10;101044.16;4984043;27;98005;-72
2023/05/13 02:22:27;;;;;;;;;;;;;;;17.33;35.22;101040.09;4999777;27;98033;-74
2023/05/13 02:24:54;;;;;;;;;;;;;;;17.31;35.26;101039.59;4984039;27;98154;-71
2023/05/13 02:27:24;;;;;;;;;;;;;;;17.28;35.18;101038.28;4964240;27;98055;-71
2023/05/13 02:29:51;;;;;;;;;;;;;;;17.25;35.12;101041.63;4962329;27;97998;-73
2023/05/13 02:32:18;;;;;;;;;;;;;;;17.23;35.23;101043.81;4965148;27;99618;-74
2023/05/13 02:34:45;;;;;;;;;;;;;;;17.21;35.29;101037.03;4980823;27;98173;-71
2023/05/13 02:37:12;;;;;;;;;;;;;;;17.18;35.32;101042.00;4980250;27;98290;-73
2023/05/13 02:39:39;;;;;;;;;;;;;;;17.16;35.15;101040.66;4983093;27;99265;-72
2023/05/13 02:42:07;;;;;;;;;;;;;;;17.12;35.10;101035.00;4981284;27;97969;-72
2023/05/13 02:44:35;;;;;;;;;;;;;;;17.10;35.16;101039.94;4966313;27;98242;-71
2023/05/13 02:47:03;;;;;;;;;;;;;;;17.09;35.18;101042.94;4965753;27;98082;-72
2023/05/13 02:49:31;;;;;;;;;;;;;;;17.06;35.25;101055.25;4967302;27;98234;-71
2023/05/13 02:51:59;;;;;;;;;;;;;;;17.04;35.15;101046.56;4981135;27;98220;-71
2023/05/13 02:54:27;;;;;;;;;;;;;;;17.02;35.22;101050.72;4982824;27;98356;-74
2023/05/13 02:56:55;;;;;;;;;;;;;;;17.00;35.32;101050.19;4965001;27;98642;-72
2023/05/13 02:59:22;;;;;;;;;;;;;;;16.98;35.32;101055.09;4965097;27;98151;-72
2023/05/13 03:01:49;;;;;;;;;;;;;;;16.95;35.16;101053.00;4965260;27;98190;-75
2023/05/13 03:04:15;;;;;;;;;;;;;;;16.91;35.48;101055.50;4966268;27;98451;-73
2023/05/13 03:06:42;;;;;;;;;;;;;;;16.89;35.23;101061.22;4968843;27;98017;-71
2023/05/13 03:09:08;;;;;;;;;;;;;;;16.86;35.50;101059.13;4971904;27;98132;-72
2023/05/13 03:11:35;;;;;;;;;;;;;;;16.85;35.38;101053.94;4964050;27;99754;-73
2023/05/13 03:14:01;;;;;;;;;;;;;;;16.83;35.32;101056.16;4975692;27;98895;-71
2023/05/13 03:16:29;;;;;;;;;;;;;;;16.81;35.37;101053.72;4984838;27;99324;-71
2023/05/13 03:18:56;;;;;;;;;;;;;;;16.81;35.45;101058.38;4988614;27;99125;-72
2023/05/13 03:21:23;;;;;;;;;;;;;;;16.79;35.27;101058.66;4969584;27;101958;-71
2023/05/13 03:23:49;;;;;;;;;;;;;;;16.76;35.32;101053.81;4967941;27;98203;-73
2023/05/13 03:26:16;;;;;;;;;;;;;;;16.77;35.46;101058.13;4985144;27;98612;-72
2023/05/13 03:28:43;;;;;;;;;;;;;;;16.77;35.15;101060.06;4985105;27;98358;-73
2023/05/13 03:31:10;;;;;;;;;;;;;;;16.73;35.52;101059.00;4988175;27;98448;-73
2023/05/13 03:33:36;;;;;;;;;;;;;;;16.73;35.41;101057.09;4988473;27;98071;-71
2023/05/13 03:36:03;;;;;;;;;;;;;;;16.73;35.34;101064.44;4988820;27;98110;-73
2023/05/13 03:38:30;;;;;;;;;;;;;;;16.70;35.34;101057.66;4987849;27;98772;-72
2023/05/13 03:40:57;;;;;;;;;;;;;;;16.71;35.36;101064.75;4991076;27;98288;-72
2023/05/13 03:43:23;;;;;;;;;;;;;;;16.70;35.50;101060.38;4972878;27;97896;-72
2023/05/13 03:45:50;;;;;;;;;;;;;;;16.70;35.32;101060.38;4989289;27;98161;-75
2023/05/13 03:48:18;;;;;;;;;;;;;;;16.69;35.27;101067.75;4971645;27;98096;-74
2023/05/13 03:50:46;;;;;;;;;;;;;;;16.70;35.51;101063.09;4976618;27;98146;-75
2023/05/13 03:53:13;;;;;;;;;;;;;;;16.71;35.52;101066.66;4969168;27;98222;-73
2023/05/13 03:55:40;;;;;;;;;;;;;;;16.76;35.39;101069.34;4971869;27;98085;-72
2023/05/13 03:58:13;;;;;;;;;;;;;;;16.84;35.33;101069.47;4974053;27;98265;-73
2023/05/13 04:00:40;;;;;;;;;;;;;;;16.91;35.49;101067.19;4974214;27;99818;-72
2023/05/13 04:03:08;;;;;;;;;;;;;;;16.98;35.32;101072.28;4949764;27;98888;-74
2023/05/13 04:05:35;;;;;;;;;;;;;;;17.03;35.50;101065.94;4967850;27;98015;-73
2023/05/13 04:08:02;;;;;;;;;;;;;;;17.08;35.21;101076.75;4984417;27;98480;-73
2023/05/13 04:10:29;;;;;;;;;;;;;;;17.10;35.43;101067.19;4989948;27;101220;-73
2023/05/13 04:12:56;;;;;;;;;;;;;;;17.13;35.31;101071.22;4973299;27;98182;-72
2023/05/13 04:15:23;;;;;;;;;;;;;;;17.16;35.46;101073.34;4972936;27;98118;-72
2023/05/13 04:17:51;;;;;;;;;;;;;;;17.17;35.58;101077.69;4978925;27;98827;-74
2023/05/13 04:20:18;;;;;;;;;;;;;;;17.21;35.47;101080.63;4970311;27;99559;-74
2023/05/13 04:22:47;;;;;;;;;;;;;;;17.24;35.31;101088.22;4991063;27;99607;-74
2023/05/13 04:25:17;;;;;;;;;;;;;;;17.26;35.51;101075.91;4973227;27;99396;-74
2023/05/13 04:27:46;;;;;;;;;;;;;;;17.27;35.51;101082.97;4986817;27;97924;-74
2023/05/13 04:30:15;;;;;;;;;;;;;;;17.30;35.37;101082.41;4984392;27;98339;-73
2023/05/13 04:32:44;;;;;;;;;;;;;;;17.31;35.35;101084.00;4982377;27;98308;-75
2023/05/13 04:35:11;;;;;;;;;;;;;;;17.32;35.47;101087.53;4969082;27;99469;-73
2023/05/13 04:37:38;;;;;;;;;;;;;;;17.35;35.43;101089.66;4988039;27;98308;-71
2023/05/13 04:40:07;;;;;;;;;;;;;;;17.35;35.46;101079.56;4968513;27;98490;-71
2023/05/13 04:42:34;;;;;;;;;;;;;;;17.38;35.45;101089.88;5003620;27;97876;-71
2023/05/13 04:45:01;;;;;;;;;;;;;;;17.40;35.32;101095.84;4967706;27;98026;-73
2023/05/13 04:47:29;;;;;;;;;;;;;;;17.42;35.36;101093.63;4983976;27;98311;-71
2023/05/13 04:49:56;;;;;;;;;;;;;;;17.45;35.30;101094.13;4967824;27;98343;-71
2023/05/13 04:52:23;;;;;;;;;;;;;;;17.47;35.26;101094.66;4998454;27;98173;-71
2023/05/13 04:54:50;;;;;;;;;;;;;;;17.50;35.35;101094.88;4986560;27;98043;-72
2023/05/13 04:57:18;;;;;;;;;;;;;;;17.54;35.29;101104.06;4968324;27;98016;-73
2023/05/13 04:59:44;;;;;;;;;;;;;;;17.61;35.33;101107.22;4981266;27;98379;-73
2023/05/13 05:02:11;;;;;;;;;;;;;;;17.67;35.40;101110.66;4947585;27;98808;-73
2023/05/13 05:04:37;;;;;;;;;;;;;;;17.77;35.18;101104.25;4975406;27;98924;-73
2023/05/13 05:07:04;;;;;;;;;;;;;;;17.87;35.10;101109.50;4983408;27;98068;-72
2023/05/13 05:09:31;;;;;;;;;;;;;;;17.96;34.97;101107.72;4982706;27;98244;-72
2023/05/13 05:11:58;;;;;;;;;;;;;;;18.08;35.14;101109.97;4983968;27;98258;-73
2023/05/13 05:14:25;;;;;;;;;;;;;;;18.19;35.06;101113.28;4962575;27;98276;-73
2023/05/13 05:16:52;;;;;;;;;;;;;;;18.30;35.04;101112.78;4980522;27;100016;-72
2023/05/13 05:19:22;;;;;;;;;;;;;;;18.43;34.98;101116.63;4963139;27;98119;-73
2023/05/13 05:21:52;;;;;;;;;;;;;;;18.57;34.76;101127.53;4980264;27;98589;-72
2023/05/13 05:24:19;;;;;;;;;;;;;;;18.71;34.78;101131.09;4965434;27;98881;-74
2023/05/13 05:26:48;;;;;;;;;;;;;;;18.85;34.76;101137.31;4980221;27;98394;-73
2023/05/13 05:29:18;;;;;;;;;;;;;;;19.01;34.54;101135.03;4961352;27;99134;-72
2023/05/13 05:31:46;;;;;;;;;;;;;;;19.17;34.68;101137.44;4979076;27;99312;-74
2023/05/13 05:34:14;;;;;;;;;;;;;;;19.31;34.48;101136.28;4975821;27;98029;-72
2023/05/13 05:36:42;;;;;;;;;;;;;;;19.46;34.33;101132.38;4967817;27;98290;-72
2023/05/13 05:39:09;;;;;;;;;;;;;;;19.65;34.42;101134.09;4964623;27;98632;-73
2023/05/13 05:41:37;;;;;;;;;;;;;;;19.80;34.50;101136.44;4966148;27;97978;-73
2023/05/13 05:44:05;;;;;;;;;;;;;;;19.97;34.34;101133.81;4978611;27;98647;-74
2023/05/13 05:46:34;;;;;;;;;;;;;;;20.16;34.37;101130.03;4982446;27;98584;-74
2023/05/13 05:49:02;;;;;;;;;;;;;;;20.37;34.08;101133.81;4963953;27;97996;-73
2023/05/13 05:51:28;;;;;;;;;;;;;;;20.58;34.23;101134.88;4980395;27;98108;-74
2023/05/13 05:53:55;;;;;;;;;;;;;;;20.80;34.20;101128.47;4963398;27;98148;-73
2023/05/13 05:56:24;;;;;;;;;;;;;;;21.04;33.96;101122.53;4960936;27;98103;-74
2023/05/13 05:58:52;;;;;;;;;;;;;;;21.31;33.83;101126.09;4964130;27;98347;-74
2023/05/13 06:01:19;;;;;;;;;;;;;;;21.59;33.78;101123.81;4962020;27;98260;-72
2023/05/13 06:03:46;;;;;;;;;;;;;;;21.88;33.86;101119.53;4962120;27;98413;-72
2023/05/13 06:06:14;;;;;;;;;;;;;;;22.25;33.69;101120.72;4965186;27;98178;-76
2023/05/13 06:08:41;;;;;;;;;;;;;;;22.64;33.53;101119.53;4964449;27;98239;-73
2023/05/13 06:11:10;;;;;;;;;;;;;;;23.10;33.21;101119.69;4962363;27;100761;-75
2023/05/13 06:13:37;;;;;;;;;;;;;;;23.76;33.00;101115.03;4960394;27;99792;-72
2023/05/13 06:16:04;;;;;;;;;;;;;;;24.33;32.51;101118.88;4965468;27;98055;-73
2023/05/13 06:18:33;;;;;;;;;;;;;;;24.73;32.65;101121.72;4964009;27;98462;-73
2023/05/13 06:21:00;;;;;;;;;;;;;;;25.14;32.37;101116.25;4964518;27;99206;-73
2023/05/13 06:23:27;;;;;;;;;;;;;;;25.40;32.45;101116.59;4958763;27;98295;-73
2023/05/13 06:25:57;;;;;;;;;;;;;;;25.77;32.65;101116.38;4966998;27;98193;-75
2023/05/13 06:28:25;;;;;;;;;;;;;;;26.36;31.99;101117.47;4962572;27;98364;-73
2023/05/13 06:30:53;;;;;;;;;;;;;;;26.91;31.88;101115.56;4964401;27;98227;-76
2023/05/13 06:33:22;;;;;;;;;;;;;;;27.24;31.77;101112.34;4962943;27;98547;-76
2023/05/13 06:35:49;;;;;;;;;;;;;;;27.51;31.83;101112.44;4963572;27;98123;-73
2023/05/13 06:38:19;;;;;;;;;;;;;;;27.77;31.52;101122.84;4961322;27;99041;-76
2023/05/13 06:40:48;;;;;;;;;;;;;;;27.93;31.58;101115.19;4967039;27;98296;-77
2023/05/13 06:43:15;;;;;;;;;;;;;;;28.07;31.91;101117.41;4960244;27;98359;-77
2023/05/13 06:45:43;;;;;;;;;;;;;;;28.15;31.89;101119.13;4963790;27;98308;-78
2023/05/13 06:48:10;;;;;;;;;;;;;;;28.25;32.06;101118.47;4993345;27;98062;-74
2023/05/13 06:50:37;;;;;;;;;;;;;;;28.42;32.04;101114.44;4960445;27;99430;-74
2023/05/13 06:53:05;;;;;;;;;;;;;;;28.56;32.04;101119.38;4977967;27;98489;-75
2023/05/13 06:55:40;;;;;;;;;;;;;;;28.71;31.88;101115.63;4965002;27;98024;-73
2023/05/13 06:58:09;;;;;;;;;;;;;;;28.87;31.75;101110.69;4966984;27;98190;-78
2023/05/13 07:00:39;;;;;;;;;;;;;;;29.03;31.57;101115.28;4995255;27;98189;-75
2023/05/13 07:03:08;;;;;;;;;;;;;;;29.21;31.57;101107.16;4888071;27;99493;-76
2023/05/13 07:05:35;;;;;;;;;;;;;;;29.42;31.81;101099.06;4930498;27;99804;-75
2023/05/13 07:08:05;;;;;;;;;;;;;;;29.65;31.59;101110.03;4964902;27;98217;-75
2023/05/13 07:10:35;;;;;;;;;;;;;;;29.88;31.20;101100.72;4971899;27;98199;-74
2023/05/13 07:13:02;;;;;;;;;;;;;;;30.11;31.60;101106.06;4949818;27;99299;-75
2023/05/13 07:15:29;;;;;;;;;;;;;;;30.36;31.45;101115.41;4967757;27;98368;-75
2023/05/13 07:17:59;;;;;;;;;;;;;;;30.62;30.97;101110.81;4964604;27;99516;-76
2023/05/13 07:20:30;;;;;;;;;;;;;;;30.91;31.18;101103.41;4952149;28;97992;-76
2023/05/13 07:23:01;;;;;;;;;;;;;;;31.19;30.85;101106.28;4942571;28;98710;-76
2023/05/13 07:25:28;;;;;;;;;;;;;;;31.48;30.97;101098.03;4980513;27;98398;-75
2023/05/13 07:27:55;;;;;;;;;;;;;;;31.76;30.59;101092.50;4923037;28;98037;-76
2023/05/13 07:30:21;;;;;;;;;;;;;;;32.02;30.52;101087.75;4954242;28;98308;-77
2023/05/13 07:33:00;;;;;;;;;;;;;;;32.30;30.71;101088.91;4916333;28;99211;-83
2023/05/13 07:35:28;;;;;;;;;;;;;;;32.59;30.55;101084.09;4948774;28;98870;-76
2023/05/13 07:37:55;;;;;;;;;;;;;;;32.86;30.32;101087.19;4942458;27;98797;-77
2023/05/13 07:40:21;;;;;;;;;;;;;;;33.15;29.93;101082.28;4982284;27;100812;-75
2023/05/13 07:42:49;;;;;;;;;;;;;;;33.52;30.13;101087.25;4913287;28;97999;-79
2023/05/13 07:45:17;;;;;;;;;;;;;;;33.87;30.15;101080.56;4935074;28;98567;-76
2023/05/13 07:47:46;;;;;;;;;;;;;;;34.26;29.92;101087.81;4942759;28;98191;-75
2023/05/13 07:50:18;;;;;;;;;;;;;;;34.69;29.66;101078.97;4957115;28;98189;-77
2023/05/13 07:52:50;;;;;;;;;;;;;;;35.15;29.37;101086.03;4948916;28;98125;-78
2023/05/13 07:55:20;;;;;;;;;;;;;;;35.64;28.90;101078.09;4930542;28;98258;-77
2023/05/13 07:57:54;;;;;;;;;;;;;;;36.17;29.01;101078.41;4948062;28;98384;-81
2023/05/13 08:00:27;;;;;;;;;;;;;;;36.75;28.77;101079.69;4917310;28;98324;-81
2023/05/13 08:02:54;;;;;;;;;;;;;;;37.43;28.31;101078.22;4954205;28;98229;-77
2023/05/13 08:05:21;;;;;;;;;;;;;;;38.04;27.88;101082.31;4934731;28;98062;-79
2023/05/13 08:07:52;;;;;;;;;;;;;;;38.57;28.18;101077.28;4921331;28;98244;-78
2023/05/13 08:10:24;;;;;;;;;;;;;;;39.15;27.84;101080.00;4921583;28;98260;-82
2023/05/13 08:12:56;;;;;;;;;;;;;;;39.73;27.55;101078.94;4938758;28;98499;-79
2023/05/13 08:15:24;;;;;;;;;;;;;;;40.39;27.41;101076.25;4942105;28;98153;-78
2023/05/13 08:17:55;;;;;;;;;;;;;;;41.01;26.99;101067.91;4968613;28;98185;-80
2023/05/13 08:20:28;;;;;;;;;;;;;;;41.75;26.88;101068.91;4968770;27;98157;-81
2023/05/13 08:23:00;;;;;;;;;;;;;;;42.48;26.27;101070.19;4943151;28;98457;-79
2023/05/13 08:25:32;;;;;;;;;;;;;;;43.12;26.12;101068.00;4954125;28;98057;-79
2023/05/13 08:28:00;;;;;;;;;;;;;;;43.77;26.29;101059.13;4940817;28;98658;-80
2023/05/13 08:30:31;;;;;;;;;;;;;;;44.45;25.98;101059.22;4976962;27;98062;-80
2023/05/13 08:33:00;;;;;;;;;;;;;;;45.02;25.62;101061.69;4947115;27;98221;-77
2023/05/13 08:35:29;;;;;;;;;;;;;;;45.57;25.98;101051.66;4955801;27;98593;-80
2023/05/13 08:37:56;;;;;;;;;;;;;;;45.91;25.98;101054.94;4942140;28;98283;-78
2023/05/13 08:40:23;;;;;;;;;;;;;;;46.19;25.86;101050.34;4942889;28;98297;-76
2023/05/13 08:42:55;;;;;;;;;;;;;;;46.59;25.83;101048.66;4969303;28;98379;-80
2023/05/13 08:45:24;;;;;;;;;;;;;;;47.18;25.50;101050.13;4969754;28;98374;-78
2023/05/13 08:48:00;;;;;;;;;;;;;;;47.72;25.48;101044.47;4918732;28;98233;-76
2023/05/13 08:50:30;;;;;;;;;;;;;;;48.11;25.04;101038.13;4944389;28;97989;-76
2023/05/13 08:52:59;;;;;;;;;;;;;;;48.65;25.13;101037.88;4938646;28;98277;-77
2023/05/13 08:55:34;;;;;;;;;;;;;;;48.93;24.92;101037.88;4942819;28;98899;-78
2023/05/13 08:58:05;;;;;;;;;;;;;;;49.38;25.03;101038.53;4925291;28;99228;-81
2023/05/13 09:00:33;;;;;;;;;;;;;;;49.68;24.79;101037.94;4937032;28;98029;-81
2023/05/13 09:03:05;;;;;;;;;;;;;;;50.00;25.08;101034.63;4942647;28;98210;-83
2023/05/13 09:05:44;;;;;;;;;;;;;;;50.46;25.00;101028.03;4969957;27;98040;-82
2023/05/13 09:08:12;;;;;;;;;;;;;;;50.84;24.69;101025.34;4960566;28;97916;-80
2023/05/13 09:10:44;;;;;;;;;;;;;;;50.99;24.99;101034.34;4937428;27;97990;-84
2023/05/13 09:13:11;;;;;;;;;;;;;;;51.13;24.63;101022.97;4943006;28;98725;-83
2023/05/13 09:15:42;;;;;;;;;;;;;;;51.36;24.89;101024.28;4955666;28;98815;-84
2023/05/13 09:18:08;;;;;;;;;;;;;;;50.95;25.20;101018.75;4951184;28;99946;-84
2023/05/13 09:20:35;;;;;;;;;;;;;;;50.26;25.39;101012.06;4941548;28;97977;-84
2023/05/13 09:23:11;;;;;;;;;;;;;;;49.80;25.99;101010.78;4958452;28;98265;-80
2023/05/13 09:25:39;;;;;;;;;;;;;;;49.50;26.19;101016.41;4932305;28;98306;-86
2023/05/13 09:28:07;;;;;;;;;;;;;;;49.49;26.16;101014.09;4940567;28;98410;-86
2023/05/13 09:30:44;;;;;;;;;;;;;;;49.91;26.01;101014.91;4944506;27;98164;-83
2023/05/13 09:33:21;;;;;;;;;;;;;;;50.78;25.01;101013.16;4937460;28;98867;-83
2023/05/13 09:35:57;;;;;;;;;;;;;;;51.66;24.69;101020.53;4955957;27;97954;-80
2023/05/13 09:38:31;;;;;;;;;;;;;;;52.33;23.96;101021.63;4951131;28;98056;-82
2023/05/13 09:41:08;;;;;;;;;;;;;;;53.34;23.12;101011.13;4942648;27;98588;-86
2023/05/13 09:43:38;;;;;;;;;;;;;;;53.82;23.26;101012.66;4947918;28;98117;-80
2023/05/13 09:46:05;;;;;;;;;;;;;;;54.00;23.33;101008.03;4933500;27;97953;-81
2023/05/13 09:48:37;;;;;;;;;;;;;;;54.21;23.57;101002.31;4924896;28;97922;-79
2023/05/13 09:51:06;;;;;;;;;;;;;;;54.64;23.12;101006.72;4939918;27;98083;-81
2023/05/13 09:53:33;;;;;;;;;;;;;;;55.06;23.13;101000.81;4918576;28;98132;-82
2023/05/13 09:56:00;;;;;;;;;;;;;;;55.61;23.21;101007.03;4925625;28;98100;-79
2023/05/13 09:58:29;;;;;;;;;;;;;;;56.11;22.59;100998.13;4939261;28;98271;-80
2023/05/13 10:00:56;;;;;;;;;;;;;;;56.36;23.08;100986.72;4937773;27;100409;-83
2023/05/13 10:03:34;;;;;;;;;;;;;;;56.29;23.25;100982.50;4926604;28;98494;-83
2023/05/13 10:06:07;;;;;;;;;;;;;;;56.69;23.02;100995.59;4968490;27;99585;-83
2023/05/13 10:08:33;;;;;;;;;;;;;;;57.13;22.60;100986.63;4934865;28;98286;-83
2023/05/13 10:11:03;;;;;;;;;;;;;;;57.37;22.55;100977.25;4940154;28;98009;-86
2023/05/13 10:13:38;;;;;;;;;;;;;;;57.55;22.37;100969.44;4928738;28;98295;-84
2023/05/13 10:16:08;;;;;;;;;;;;;;;57.73;22.39;100976.06;4946257;28;98129;-84
2023/05/13 10:18:50;;;;;;;;;;;;;;;57.64;23.06;100980.38;4947136;28;117522;-85
2023/05/13 10:21:21;;;;;;;;;;;;;;;57.65;22.71;100960.88;4904526;28;98084;-85
2023/05/13 10:23:52;;;;;;;;;;;;;;;57.81;23.04;100962.31;4889713;28;98425;-86
2023/05/13 10:26:26;;;;;;;;;;;;;;;57.56;22.69;100962.28;4940755;28;98221;-83
2023/05/13 10:28:54;;;;;;;;;;;;;;;55.85;24.22;100950.09;4917345;28;98949;-87
2023/05/13 10:31:20;;;;;;;;;;;;;;;55.39;24.33;100953.66;4941496;28;98145;-88
2023/05/13 10:33:50;;;;;;;;;;;;;;;56.24;23.59;100957.44;4905988;28;98206;-82
2023/05/13 10:36:52;;;;;;;;;;;;;;;56.52;22.93;100953.59;4954079;28;98572;-89
2023/05/13 10:39:37;;;;;;;;;;;;;;;56.94;22.98;100950.19;4951194;28;98583;-84
2023/05/13 10:42:42;;;;;;;;;;;;;;;57.05;22.96;100954.81;4946973;28;98022;-83
2023/05/13 10:45:09;;;;;;;;;;;;;;;57.40;22.49;100946.34;4948666;28;98486;-83
2023/05/13 10:47:36;;;;;;;;;;;;;;;57.48;22.53;100950.75;4916798;28;97981;-88
2023/05/13 10:50:27;;;;;;;;;;;;;;;57.71;22.67;100944.81;4923011;28;98005;-83
2023/05/13 10:52:59;;;;;;;;;;;;;;;56.75;23.11;100941.97;4920203;28;98230;-83
2023/05/13 10:55:27;;;;;;;;;;;;;;;54.63;24.78;100928.09;4904382;28;98025;-81
2023/05/13 10:58:13;;;;;;;;;;;;;;;51.89;26.13;100935.59;4915235;28;98240;-83
2023/05/13 11:00:45;;;;;;;;;;;;;;;52.97;24.76;100935.22;4939673;28;98071;-81
2023/05/13 11:03:19;;;;;;;;;;;;;;;53.76;23.94;100939.22;4904150;28;98398;-82
2023/05/13 11:06:19;;;;;;;;;;;;;;;54.13;23.58;100944.59;4953130;28;98190;-82
2023/05/13 11:08:51;;;;;;;;;;;;;;;54.58;23.13;100949.19;4923732;28;97870;-82
2023/05/13 11:11:27;;;;;;;;;;;;;;;53.43;24.28;100944.44;4953147;28;98068;-88
2023/05/13 11:14:32;;;;;;;;;;;;;;;54.15;23.75;100952.66;4969831;27;99733;-88
2023/05/13 11:16:59;;;;;;;;;;;;;;;51.08;25.85;100935.66;4922462;28;98172;-89
2023/05/13 11:19:31;;;;;;;;;;;;;;;48.58;26.99;100930.59;4945629;28;97961;-89
2023/05/13 11:22:12;;;;;;;;;;;;;;;46.64;27.96;100936.00;4927939;28;98224;-91
2023/05/13 11:24:44;;;;;;;;;;;;;;;44.78;29.11;100928.28;4939142;28;98179;-89
2023/05/13 11:27:15;;;;;;;;;;;;;;;43.34;29.36;100925.94;4928385;28;98015;-88
2023/05/13 11:29:50;;;;;;;;;;;;;;;42.28;29.90;100929.16;4904294;28;98151;-80
2023/05/13 11:32:51;;;;;;;;;;;;;;;41.30;30.13;100936.72;4904070;28;98467;-80
2023/05/13 11:35:26;;;;;;;;;;;;;;;40.94;29.53;100943.84;4933965;28;98316;-79
2023/05/13 11:37:59;;;;;;;;;;;;;;;40.07;29.97;100939.16;4947797;28;98179;-82
2023/05/13 11:40:31;;;;;;;;;;;;;;;39.15;30.58;100941.94;4921670;28;98107;-79
2023/05/13 11:43:01;;;;;;;;;;;;;;;38.45;30.66;100934.50;4938572;28;98150;-78
2023/05/13 11:45:32;;;;;;;;;;;;;;;37.92;30.55;100937.59;4947396;28;98160;-82
2023/05/13 11:48:16;;;;;;;;;;;;;;;39.90;28.15;100947.03;4920949;28;97909;-81
2023/05/13 11:50:47;;;;;;;;;;;;;;;38.09;29.58;100951.63;4921928;28;98287;-81
2023/05/13 11:53:18;;;;;;;;;;;;;;;37.18;30.31;100946.75;4908129;28;98069;-77
2023/05/13 11:55:45;;;;;;;;;;;;;;;36.49;30.61;100952.34;4940947;28;100277;-78
2023/05/13 11:58:16;;;;;;;;;;;;;;;35.92;30.83;100961.06;4926182;28;98400;-80
2023/05/13 12:00:45;;;;;;;;;;;;;;;35.37;31.18;100964.03;4935927;28;98703;-79
2023/05/13 12:03:15;;;;;;;;;;;;;;;34.98;31.00;100966.63;4925463;28;98166;-78
2023/05/13 12:05:44;;;;;;;;;;;;;;;34.65;30.72;100971.91;4951225;28;99719;-78
2023/05/13 12:08:23;;;;;;;;;;;;;;;34.45;30.75;100977.31;4907156;28;98054;-80
2023/05/13 12:10:50;;;;;;;;;;;;;;;34.23;30.96;100967.59;4938493;28;98107;-78
2023/05/13 12:13:25;;;;;;;;;;;;;;;33.59;31.28;100977.44;4943924;28;99051;-79
2023/05/13 12:15:52;;;;;;;;;;;;;;;33.10;31.38;100968.25;4943143;28;98549;-79
2023/05/13 12:18:19;;;;;;;;;;;;;;;32.69;31.27;100980.00;4943573;28;98279;-79
2023/05/13 12:20:46;;;;;;;;;;;;;;;32.32;31.38;100991.72;4945423;28;98521;-78
2023/05/13 12:23:22;;;;;;;;;;;;;;;31.99;31.40;100989.03;4942447;28;99511;-78
2023/05/13 12:25:52;;;;;;;;;;;;;;;31.73;31.54;100987.44;4934954;28;99306;-79
2023/05/13 12:28:23;;;;;;;;;;;;;;;31.52;31.46;100998.59;4919346;28;97968;-76
2023/05/13 12:30:56;;;;;;;;;;;;;;;31.37;31.43;100991.44;4974547;27;97939;-77
2023/05/13 12:33:28;;;;;;;;;;;;;;;31.23;31.20;101006.09;4952335;28;98449;-76
2023/05/13 12:36:13;;;;;;;;;;;;;;;31.10;31.11;101007.69;4967540;27;98776;-77
2023/05/13 12:39:08;;;;;;;;;;;;;;;31.00;31.01;101001.66;4967433;27;98120;-78
2023/05/13 12:41:39;;;;;;;;;;;;;;;31.15;30.61;101015.63;4940429;27;98108;-76
2023/05/13 12:44:15;;;;;;;;;;;;;;;31.23;30.58;101014.44;4942842;27;98407;-76
2023/05/13 12:46:53;;;;;;;;;;;;;;;32.35;29.48;101016.00;4959748;28;98315;-76
2023/05/13 12:49:25;;;;;;;;;;;;;;;31.98;30.01;101011.72;4928434;27;98276;-78